Terminal Aerodrome Forecast
Issued by NWS Huntsville, AL

Home | Current Version | Previous Version | Text Only | Print | Product List | Glossary On
Versions: 1 2 3 4 5 6 7 8 9 10 11 12 13 14 15 16 17 18
000
FTUS44 KHUN 261735
TAFHSV
TAF
KHSV 261735Z 2618/2718 VRB05KT P6SM SCT040
     FM270000 VRB03KT P6SM SKC
      TEMPO 2710/2713 5SM BR
     FM271400 36006KT P6SM SCT040=

USA.gov is the U.S. government's official web portal to all federal, state and local government web resources and services.